sensor_id;sensor_type;location;lat;lon;timestamp;temperature;humidity
15384;DHT22;7790;53.022;12.968;2023-02-14T00:01:14;21.60;41.10
15384;DHT22;7790;53.022;12.968;2023-02-14T00:05:15;21.60;41.10
15384;DHT22;7790;53.022;12.968;2023-02-14T00:09:18;21.50;41.10
15384;DHT22;7790;53.022;12.968;2023-02-14T00:13:18;21.50;41.30
15384;DHT22;7790;53.022;12.968;2023-02-14T00:17:19;21.40;41.40
15384;DHT22;7790;53.022;12.968;2023-02-14T00:21:20;21.30;41.40
15384;DHT22;7790;53.022;12.968;2023-02-14T00:25:21;21.30;41.30
15384;DHT22;7790;53.022;12.968;2023-02-14T00:29:27;20.80;40.20
15384;DHT22;7790;53.022;12.968;2023-02-14T00:33:30;20.50;41.30
15384;DHT22;7790;53.022;12.968;2023-02-14T00:37:31;20.90;41.40
15384;DHT22;7790;53.022;12.968;2023-02-14T00:41:32;21.10;40.90
15384;DHT22;7790;53.022;12.968;2023-02-14T00:45:33;21.30;40.80
15384;DHT22;7790;53.022;12.968;2023-02-14T00:49:34;21.40;40.80
15384;DHT22;7790;53.022;12.968;2023-02-14T00:53:35;21.50;40.70
15384;DHT22;7790;53.022;12.968;2023-02-14T00:57:36;21.50;40.70
15384;DHT22;7790;53.022;12.968;2023-02-14T01:01:38;21.50;40.70
15384;DHT22;7790;53.022;12.968;2023-02-14T01:05:39;21.40;40.80
15384;DHT22;7790;53.022;12.968;2023-02-14T01:09:40;21.40;40.80
15384;DHT22;7790;53.022;12.968;2023-02-14T01:13:42;21.20;40.80
15384;DHT22;7790;53.022;12.968;2023-02-14T01:17:43;21.20;41.00
15384;DHT22;7790;53.022;12.968;2023-02-14T01:21:44;21.30;40.90
15384;DHT22;7790;53.022;12.968;2023-02-14T01:25:48;21.30;40.90
15384;DHT22;7790;53.022;12.968;2023-02-14T01:29:49;21.30;40.80
15384;DHT22;7790;53.022;12.968;2023-02-14T01:33:50;21.40;40.80
15384;DHT22;7790;53.022;12.968;2023-02-14T01:37:51;21.40;40.80
15384;DHT22;7790;53.022;12.968;2023-02-14T01:41:54;21.50;40.80
15384;DHT22;7790;53.022;12.968;2023-02-14T01:45:56;21.50;40.80
15384;DHT22;7790;53.022;12.968;2023-02-14T01:50:02;21.40;40.70
15384;DHT22;7790;53.022;12.968;2023-02-14T01:54:05;21.30;40.80
15384;DHT22;7790;53.022;12.968;2023-02-14T01:58:28;21.30;40.90
15384;DHT22;7790;53.022;12.968;2023-02-14T02:02:32;21.20;41.00
15384;DHT22;7790;53.022;12.968;2023-02-14T02:06:39;21.20;40.90
15384;DHT22;7790;53.022;12.968;2023-02-14T02:10:41;21.30;40.90
15384;DHT22;7790;53.022;12.968;2023-02-14T02:14:42;21.30;40.80
15384;DHT22;7790;53.022;12.968;2023-02-14T02:45:46;21.50;40.60
15384;DHT22;7790;53.022;12.968;2023-02-14T02:54:53;21.40;40.80
15384;DHT22;7790;53.022;12.968;2023-02-14T03:03:29;21.30;40.80
15384;DHT22;7790;53.022;12.968;2023-02-14T03:07:50;21.40;40.80
15384;DHT22;7790;53.022;12.968;2023-02-14T03:12:12;21.50;40.60
15384;DHT22;7790;53.022;12.968;2023-02-14T03:16:43;21.50;40.60
15384;DHT22;7790;53.022;12.968;2023-02-14T03:21:23;21.50;40.60
15384;DHT22;7790;53.022;12.968;2023-02-14T03:25:42;21.60;40.60
15384;DHT22;7790;53.022;12.968;2023-02-14T03:30:04;21.60;40.50
15384;DHT22;7790;53.022;12.968;2023-02-14T03:34:14;21.60;40.40
15384;DHT22;7790;53.022;12.968;2023-02-14T03:42:25;21.70;40.30
15384;DHT22;7790;53.022;12.968;2023-02-14T03:46:35;21.70;40.30
15384;DHT22;7790;53.022;12.968;2023-02-14T03:50:37;21.80;40.30
15384;DHT22;7790;53.022;12.968;2023-02-14T03:54:41;21.80;40.20
15384;DHT22;7790;53.022;12.968;2023-02-14T03:58:46;21.80;40.20
15384;DHT22;7790;53.022;12.968;2023-02-14T04:03:01;21.80;40.30
15384;DHT22;7790;53.022;12.968;2023-02-14T04:07:10;21.70;40.50
15384;DHT22;7790;53.022;12.968;2023-02-14T04:11:12;21.60;41.00
15384;DHT22;7790;53.022;12.968;2023-02-14T04:15:13;21.50;40.60
15384;DHT22;7790;53.022;12.968;2023-02-14T04:19:15;21.40;40.80
15384;DHT22;7790;53.022;12.968;2023-02-14T04:23:24;21.40;40.70
15384;DHT22;7790;53.022;12.968;2023-02-14T04:27:25;21.30;40.60
15384;DHT22;7790;53.022;12.968;2023-02-14T04:31:26;21.20;40.60
15384;DHT22;7790;53.022;12.968;2023-02-14T04:35:27;21.10;40.60
15384;DHT22;7790;53.022;12.968;2023-02-14T04:39:28;21.00;41.10
15384;DHT22;7790;53.022;12.968;2023-02-14T04:43:29;21.00;40.80
15384;DHT22;7790;53.022;12.968;2023-02-14T04:47:30;21.20;40.70
15384;DHT22;7790;53.022;12.968;2023-02-14T04:51:31;21.30;40.70
15384;DHT22;7790;53.022;12.968;2023-02-14T04:55:31;21.30;40.60
15384;DHT22;7790;53.022;12.968;2023-02-14T04:59:32;21.40;40.60
15384;DHT22;7790;53.022;12.968;2023-02-14T05:03:33;21.50;40.50
15384;DHT22;7790;53.022;12.968;2023-02-14T05:07:34;21.60;40.40
15384;DHT22;7790;53.022;12.968;2023-02-14T05:11:35;21.70;40.30
15384;DHT22;7790;53.022;12.968;2023-02-14T05:15:35;21.70;40.20
15384;DHT22;7790;53.022;12.968;2023-02-14T05:19:36;21.80;40.10
15384;DHT22;7790;53.022;12.968;2023-02-14T05:23:37;21.80;40.00
15384;DHT22;7790;53.022;12.968;2023-02-14T05:27:38;21.80;40.00
15384;DHT22;7790;53.022;12.968;2023-02-14T05:31:39;21.90;40.00
15384;DHT22;7790;53.022;12.968;2023-02-14T05:35:39;21.90;39.90
15384;DHT22;7790;53.022;12.968;2023-02-14T05:39:40;21.80;39.90
15384;DHT22;7790;53.022;12.968;2023-02-14T05:43:41;21.80;40.10
15384;DHT22;7790;53.022;12.968;2023-02-14T05:47:42;21.60;40.20
15384;DHT22;7790;53.022;12.968;2023-02-14T05:51:43;21.50;40.30
15384;DHT22;7790;53.022;12.968;2023-02-14T05:55:43;21.40;40.40
15384;DHT22;7790;53.022;12.968;2023-02-14T05:59:44;21.40;40.30
15384;DHT22;7790;53.022;12.968;2023-02-14T06:03:45;21.30;40.40
15384;DHT22;7790;53.022;12.968;2023-02-14T06:07:49;21.30;40.50
15384;DHT22;7790;53.022;12.968;2023-02-14T06:11:50;21.20;40.50
15384;DHT22;7790;53.022;12.968;2023-02-14T06:15:51;21.10;40.60
15384;DHT22;7790;53.022;12.968;2023-02-14T06:19:51;21.10;40.50
15384;DHT22;7790;53.022;12.968;2023-02-14T06:23:52;21.10;40.60
15384;DHT22;7790;53.022;12.968;2023-02-14T06:27:57;21.20;40.40
15384;DHT22;7790;53.022;12.968;2023-02-14T06:31:58;21.30;40.50
15384;DHT22;7790;53.022;12.968;2023-02-14T06:36:05;21.40;40.40
15384;DHT22;7790;53.022;12.968;2023-02-14T06:40:07;21.40;40.30
15384;DHT22;7790;53.022;12.968;2023-02-14T06:44:08;21.50;40.40
15384;DHT22;7790;53.022;12.968;2023-02-14T06:48:09;21.50;40.30
15384;DHT22;7790;53.022;12.968;2023-02-14T06:52:10;21.60;40.20
15384;DHT22;7790;53.022;12.968;2023-02-14T06:56:11;21.70;40.10
15384;DHT22;7790;53.022;12.968;2023-02-14T07:00:12;21.70;40.00
15384;DHT22;7790;53.022;12.968;2023-02-14T07:04:14;21.70;40.10
15384;DHT22;7790;53.022;12.968;2023-02-14T07:08:15;21.60;40.20
15384;DHT22;7790;53.022;12.968;2023-02-14T07:12:16;21.60;40.20
15384;DHT22;7790;53.022;12.968;2023-02-14T07:16:16;21.40;40.20
15384;DHT22;7790;53.022;12.968;2023-02-14T07:20:18;21.40;41.00
15384;DHT22;7790;53.022;12.968;2023-02-14T07:24:18;21.40;40.50
15384;DHT22;7790;53.022;12.968;2023-02-14T07:28:19;21.50;40.60
15384;DHT22;7790;53.022;12.968;2023-02-14T07:32:20;21.50;40.50
15384;DHT22;7790;53.022;12.968;2023-02-14T07:36:22;21.60;40.50
15384;DHT22;7790;53.022;12.968;2023-02-14T07:40:23;21.60;41.00
15384;DHT22;7790;53.022;12.968;2023-02-14T07:44:24;21.70;40.70
15384;DHT22;7790;53.022;12.968;2023-02-14T07:48:25;21.70;40.60
15384;DHT22;7790;53.022;12.968;2023-02-14T07:52:26;21.80;40.60
15384;DHT22;7790;53.022;12.968;2023-02-14T07:56:27;21.80;40.80
15384;DHT22;7790;53.022;12.968;2023-02-14T08:00:28;21.70;40.90
15384;DHT22;7790;53.022;12.968;2023-02-14T08:04:29;21.70;40.90
15384;DHT22;7790;53.022;12.968;2023-02-14T08:08:30;21.70;40.90
15384;DHT22;7790;53.022;12.968;2023-02-14T08:12:32;21.70;41.10
15384;DHT22;7790;53.022;12.968;2023-02-14T08:16:51;21.60;41.10
15384;DHT22;7790;53.022;12.968;2023-02-14T08:20:52;21.50;41.20
15384;DHT22;7790;53.022;12.968;2023-02-14T08:24:53;21.50;41.40
15384;DHT22;7790;53.022;12.968;2023-02-14T08:28:54;21.40;41.40
15384;DHT22;7790;53.022;12.968;2023-02-14T08:32:55;21.40;41.40
15384;DHT22;7790;53.022;12.968;2023-02-14T08:36:55;21.40;41.40
15384;DHT22;7790;53.022;12.968;2023-02-14T08:41:00;21.50;41.20
15384;DHT22;7790;53.022;12.968;2023-02-14T08:45:01;21.50;41.20
15384;DHT22;7790;53.022;12.968;2023-02-14T08:49:02;21.60;41.30
15384;DHT22;7790;53.022;12.968;2023-02-14T08:53:11;21.70;41.10
15384;DHT22;7790;53.022;12.968;2023-02-14T08:57:12;21.80;41.10
15384;DHT22;7790;53.022;12.968;2023-02-14T09:01:16;21.90;41.00
15384;DHT22;7790;53.022;12.968;2023-02-14T09:05:18;21.90;41.00
15384;DHT22;7790;53.022;12.968;2023-02-14T09:09:19;22.00;41.10
15384;DHT22;7790;53.022;12.968;2023-02-14T09:13:20;22.00;40.90
15384;DHT22;7790;53.022;12.968;2023-02-14T09:17:21;21.90;40.90
15384;DHT22;7790;53.022;12.968;2023-02-14T09:21:24;21.90;41.00
15384;DHT22;7790;53.022;12.968;2023-02-14T09:25:25;21.70;40.60
15384;DHT22;7790;53.022;12.968;2023-02-14T09:29:27;21.60;41.00
15384;DHT22;7790;53.022;12.968;2023-02-14T09:33:28;21.60;41.00
15384;DHT22;7790;53.022;12.968;2023-02-14T09:37:28;21.60;40.90
15384;DHT22;7790;53.022;12.968;2023-02-14T09:45:32;21.70;40.90
15384;DHT22;7790;53.022;12.968;2023-02-14T09:49:37;21.80;41.00
15384;DHT22;7790;53.022;12.968;2023-02-14T10:11:11;21.40;42.50
15384;DHT22;7790;53.022;12.968;2023-02-14T10:15:26;21.40;42.40
15384;DHT22;7790;53.022;12.968;2023-02-14T10:19:31;21.60;42.10
15384;DHT22;7790;53.022;12.968;2023-02-14T10:23:42;21.70;41.70
15384;DHT22;7790;53.022;12.968;2023-02-14T10:27:45;21.80;41.50
15384;DHT22;7790;53.022;12.968;2023-02-14T10:40:42;21.80;43.80
15384;DHT22;7790;53.022;12.968;2023-02-14T10:57:44;21.80;42.70
15384;DHT22;7790;53.022;12.968;2023-02-14T11:01:47;21.70;42.80
15384;DHT22;7790;53.022;12.968;2023-02-14T11:05:49;21.70;42.90
15384;DHT22;7790;53.022;12.968;2023-02-14T11:09:50;21.70;42.90
15384;DHT22;7790;53.022;12.968;2023-02-14T11:13:51;21.80;43.10
15384;DHT22;7790;53.022;12.968;2023-02-14T11:18:21;21.80;43.40
15384;DHT22;7790;53.022;12.968;2023-02-14T11:22:28;21.90;43.80
15384;DHT22;7790;53.022;12.968;2023-02-14T11:26:32;22.00;44.20
15384;DHT22;7790;53.022;12.968;2023-02-14T11:30:34;22.10;44.90
15384;DHT22;7790;53.022;12.968;2023-02-14T11:34:38;22.10;45.70
15384;DHT22;7790;53.022;12.968;2023-02-14T11:38:40;22.00;45.80
15384;DHT22;7790;53.022;12.968;2023-02-14T11:42:44;21.90;46.30
15384;DHT22;7790;53.022;12.968;2023-02-14T11:46:49;21.80;45.70
15384;DHT22;7790;53.022;12.968;2023-02-14T11:51:09;21.80;45.50
15384;DHT22;7790;53.022;12.968;2023-02-14T11:55:31;21.80;45.90
15384;DHT22;7790;53.022;12.968;2023-02-14T11:59:46;21.80;46.30
15384;DHT22;7790;53.022;12.968;2023-02-14T12:03:48;21.90;45.10
15384;DHT22;7790;53.022;12.968;2023-02-14T12:07:51;22.00;44.50
15384;DHT22;7790;53.022;12.968;2023-02-14T12:15:56;22.00;44.20
15384;DHT22;7790;53.022;12.968;2023-02-14T12:20:11;22.00;44.30
15384;DHT22;7790;53.022;12.968;2023-02-14T12:28:20;21.80;44.40
15384;DHT22;7790;53.022;12.968;2023-02-14T12:32:25;21.70;44.40
15384;DHT22;7790;53.022;12.968;2023-02-14T12:36:32;21.60;44.20
15384;DHT22;7790;53.022;12.968;2023-02-14T12:41:02;21.50;43.90
15384;DHT22;7790;53.022;12.968;2023-02-14T13:03:20;21.50;43.40
15384;DHT22;7790;53.022;12.968;2023-02-14T13:07:58;21.60;43.60
15384;DHT22;7790;53.022;12.968;2023-02-14T13:20:55;18.20;41.20
15384;DHT22;7790;53.022;12.968;2023-02-14T13:25:01;18.10;40.50
15384;DHT22;7790;53.022;12.968;2023-02-14T13:29:05;16.10;40.20
15384;DHT22;7790;53.022;12.968;2023-02-14T13:33:13;16.20;41.60
15384;DHT22;7790;53.022;12.968;2023-02-14T13:37:22;15.70;42.50
15384;DHT22;7790;53.022;12.968;2023-02-14T13:41:25;16.30;41.10
15384;DHT22;7790;53.022;12.968;2023-02-14T13:53:52;15.30;41.10
15384;DHT22;7790;53.022;12.968;2023-02-14T13:58:14;14.70;43.00
15384;DHT22;7790;53.022;12.968;2023-02-14T14:06:26;14.90;42.60
15384;DHT22;7790;53.022;12.968;2023-02-14T14:11:01;15.10;42.10
15384;DHT22;7790;53.022;12.968;2023-02-14T14:19:34;14.60;42.00
15384;DHT22;7790;53.022;12.968;2023-02-14T14:23:33;13.30;43.50
15384;DHT22;7790;53.022;12.968;2023-02-14T14:27:40;13.90;44.20
15384;DHT22;7790;53.022;12.968;2023-02-14T14:31:42;15.60;43.00
15384;DHT22;7790;53.022;12.968;2023-02-14T14:35:52;16.50;41.40
15384;DHT22;7790;53.022;12.968;2023-02-14T14:39:56;17.10;41.30
15384;DHT22;7790;53.022;12.968;2023-02-14T14:43:58;17.40;41.20
15384;DHT22;7790;53.022;12.968;2023-02-14T14:48:07;17.90;40.80
15384;DHT22;7790;53.022;12.968;2023-02-14T14:52:30;18.40;40.70
15384;DHT22;7790;53.022;12.968;2023-02-14T14:56:35;18.80;40.50
15384;DHT22;7790;53.022;12.968;2023-02-14T15:00:38;19.10;40.50
15384;DHT22;7790;53.022;12.968;2023-02-14T15:04:42;19.40;40.50
15384;DHT22;7790;53.022;12.968;2023-02-14T15:08:43;19.60;40.50
15384;DHT22;7790;53.022;12.968;2023-02-14T15:12:44;19.80;40.80
15384;DHT22;7790;53.022;12.968;2023-02-14T15:17:11;19.90;40.90
15384;DHT22;7790;53.022;12.968;2023-02-14T15:21:14;20.10;41.10
15384;DHT22;7790;53.022;12.968;2023-02-14T15:25:19;20.20;41.10
15384;DHT22;7790;53.022;12.968;2023-02-14T15:33:23;20.40;41.20
15384;DHT22;7790;53.022;12.968;2023-02-14T15:37:24;20.50;41.30
15384;DHT22;7790;53.022;12.968;2023-02-14T15:41:26;20.60;41.40
15384;DHT22;7790;53.022;12.968;2023-02-14T15:45:30;20.70;41.40
15384;DHT22;7790;53.022;12.968;2023-02-14T15:49:35;20.80;41.40
15384;DHT22;7790;53.022;12.968;2023-02-14T15:58:04;20.80;41.60
15384;DHT22;7790;53.022;12.968;2023-02-14T16:02:42;20.80;41.90
15384;DHT22;7790;53.022;12.968;2023-02-14T16:06:43;20.80;42.00
15384;DHT22;7790;53.022;12.968;2023-02-14T16:11:01;20.90;41.90
15384;DHT22;7790;53.022;12.968;2023-02-14T16:15:29;20.90;41.90
15384;DHT22;7790;53.022;12.968;2023-02-14T16:23:36;20.90;42.10
15384;DHT22;7790;53.022;12.968;2023-02-14T16:27:38;21.00;41.90
15384;DHT22;7790;53.022;12.968;2023-02-14T16:31:46;20.80;41.90
15384;DHT22;7790;53.022;12.968;2023-02-14T16:35:48;20.80;42.00
15384;DHT22;7790;53.022;12.968;2023-02-14T16:39:53;20.70;42.10
15384;DHT22;7790;53.022;12.968;2023-02-14T16:43:57;20.70;42.40
15384;DHT22;7790;53.022;12.968;2023-02-14T16:47:58;20.60;42.30
15384;DHT22;7790;53.022;12.968;2023-02-14T16:51:58;20.50;42.50
15384;DHT22;7790;53.022;12.968;2023-02-14T16:55:59;20.50;42.50
15384;DHT22;7790;53.022;12.968;2023-02-14T17:00:00;20.40;42.50
15384;DHT22;7790;53.022;12.968;2023-02-14T17:04:01;20.40;42.60
15384;DHT22;7790;53.022;12.968;2023-02-14T17:08:03;20.30;42.60
15384;DHT22;7790;53.022;12.968;2023-02-14T17:12:09;20.30;42.70
15384;DHT22;7790;53.022;12.968;2023-02-14T17:16:15;20.20;42.70
15384;DHT22;7790;53.022;12.968;2023-02-14T17:20:16;20.10;42.70
15384;DHT22;7790;53.022;12.968;2023-02-14T17:24:19;20.10;42.80
15384;DHT22;7790;53.022;12.968;2023-02-14T17:28:20;20.00;42.80
15384;DHT22;7790;53.022;12.968;2023-02-14T17:32:21;19.90;42.90
15384;DHT22;7790;53.022;12.968;2023-02-14T17:36:22;19.90;42.90
15384;DHT22;7790;53.022;12.968;2023-02-14T17:40:23;19.80;43.00
15384;DHT22;7790;53.022;12.968;2023-02-14T17:44:24;19.80;43.00
15384;DHT22;7790;53.022;12.968;2023-02-14T17:48:25;20.00;42.90
15384;DHT22;7790;53.022;12.968;2023-02-14T17:52:26;20.20;43.00
15384;DHT22;7790;53.022;12.968;2023-02-14T17:56:29;20.30;42.50
15384;DHT22;7790;53.022;12.968;2023-02-14T18:00:31;20.60;42.60
15384;DHT22;7790;53.022;12.968;2023-02-14T18:04:32;20.70;42.60
15384;DHT22;7790;53.022;12.968;2023-02-14T18:08:38;20.80;42.50
15384;DHT22;7790;53.022;12.968;2023-02-14T18:12:39;21.10;42.70
15384;DHT22;7790;53.022;12.968;2023-02-14T18:16:41;21.20;42.30
15384;DHT22;7790;53.022;12.968;2023-02-14T18:20:41;21.10;42.50
15384;DHT22;7790;53.022;12.968;2023-02-14T18:24:42;21.10;42.40
15384;DHT22;7790;53.022;12.968;2023-02-14T18:28:43;21.20;42.20
15384;DHT22;7790;53.022;12.968;2023-02-14T18:32:44;21.10;42.30
15384;DHT22;7790;53.022;12.968;2023-02-14T18:36:45;21.20;42.10
15384;DHT22;7790;53.022;12.968;2023-02-14T18:40:46;21.20;41.90
15384;DHT22;7790;53.022;12.968;2023-02-14T18:44:47;21.20;41.80
15384;DHT22;7790;53.022;12.968;2023-02-14T18:48:48;21.20;41.70
15384;DHT22;7790;53.022;12.968;2023-02-14T18:52:49;21.20;41.70
15384;DHT22;7790;53.022;12.968;2023-02-14T18:56:50;21.20;41.60
15384;DHT22;7790;53.022;12.968;2023-02-14T19:00:51;21.10;41.50
15384;DHT22;7790;53.022;12.968;2023-02-14T19:04:52;21.00;41.50
15384;DHT22;7790;53.022;12.968;2023-02-14T19:08:52;20.90;41.60
15384;DHT22;7790;53.022;12.968;2023-02-14T19:12:54;20.90;41.90
15384;DHT22;7790;53.022;12.968;2023-02-14T19:16:55;20.80;42.10
15384;DHT22;7790;53.022;12.968;2023-02-14T19:20:56;20.90;41.90
15384;DHT22;7790;53.022;12.968;2023-02-14T19:24:57;20.90;42.00
15384;DHT22;7790;53.022;12.968;2023-02-14T19:29:01;20.90;42.00
15384;DHT22;7790;53.022;12.968;2023-02-14T19:33:03;21.00;42.10
15384;DHT22;7790;53.022;12.968;2023-02-14T19:37:04;21.00;42.10
15384;DHT22;7790;53.022;12.968;2023-02-14T19:41:22;21.00;42.00
15384;DHT22;7790;53.022;12.968;2023-02-14T19:45:23;21.10;42.30
15384;DHT22;7790;53.022;12.968;2023-02-14T19:49:24;21.10;41.70
15384;DHT22;7790;53.022;12.968;2023-02-14T19:53:27;21.10;41.60
15384;DHT22;7790;53.022;12.968;2023-02-14T19:57:28;21.00;41.50
15384;DHT22;7790;53.022;12.968;2023-02-14T20:01:33;21.00;41.50
15384;DHT22;7790;53.022;12.968;2023-02-14T20:05:36;20.90;41.60
15384;DHT22;7790;53.022;12.968;2023-02-14T20:09:38;20.80;41.60
15384;DHT22;7790;53.022;12.968;2023-02-14T20:13:38;20.70;41.50
15384;DHT22;7790;53.022;12.968;2023-02-14T20:17:40;20.70;41.60
15384;DHT22;7790;53.022;12.968;2023-02-14T20:21:43;20.60;41.60
15384;DHT22;7790;53.022;12.968;2023-02-14T20:25:44;20.50;41.70
15384;DHT22;7790;53.022;12.968;2023-02-14T20:29:45;20.50;41.70
15384;DHT22;7790;53.022;12.968;2023-02-14T20:33:46;20.60;42.10
15384;DHT22;7790;53.022;12.968;2023-02-14T20:37:49;20.70;42.10
15384;DHT22;7790;53.022;12.968;2023-02-14T20:41:52;20.80;42.10
15384;DHT22;7790;53.022;12.968;2023-02-14T20:45:57;20.90;42.00
15384;DHT22;7790;53.022;12.968;2023-02-14T20:49:59;21.00;42.10
15384;DHT22;7790;53.022;12.968;2023-02-14T20:54:02;21.00;42.20
15384;DHT22;7790;53.022;12.968;2023-02-14T20:58:03;21.10;41.90
15384;DHT22;7790;53.022;12.968;2023-02-14T21:02:04;21.10;41.50
15384;DHT22;7790;53.022;12.968;2023-02-14T21:06:06;21.10;41.40
15384;DHT22;7790;53.022;12.968;2023-02-14T21:10:08;21.10;41.50
15384;DHT22;7790;53.022;12.968;2023-02-14T21:14:09;21.00;41.30
15384;DHT22;7790;53.022;12.968;2023-02-14T21:18:11;21.00;41.30
15384;DHT22;7790;53.022;12.968;2023-02-14T21:22:12;20.90;41.30
15384;DHT22;7790;53.022;12.968;2023-02-14T21:26:12;20.80;41.30
15384;DHT22;7790;53.022;12.968;2023-02-14T21:30:13;20.80;41.30
15384;DHT22;7790;53.022;12.968;2023-02-14T21:34:15;20.80;41.30
15384;DHT22;7790;53.022;12.968;2023-02-14T21:38:16;20.80;41.30
15384;DHT22;7790;53.022;12.968;2023-02-14T21:42:17;20.80;41.20
15384;DHT22;7790;53.022;12.968;2023-02-14T21:46:20;20.90;41.40
15384;DHT22;7790;53.022;12.968;2023-02-14T21:50:26;20.90;41.30
15384;DHT22;7790;53.022;12.968;2023-02-14T21:54:30;21.00;41.40
15384;DHT22;7790;53.022;12.968;2023-02-14T21:58:30;21.00;41.30
15384;DHT22;7790;53.022;12.968;2023-02-14T22:02:32;21.00;41.70
15384;DHT22;7790;53.022;12.968;2023-02-14T22:06:35;21.10;41.10
15384;DHT22;7790;53.022;12.968;2023-02-14T22:10:39;21.00;41.30
15384;DHT22;7790;53.022;12.968;2023-02-14T22:14:40;20.90;41.20
15384;DHT22;7790;53.022;12.968;2023-02-14T22:18:41;20.80;41.20
15384;DHT22;7790;53.022;12.968;2023-02-14T22:22:42;20.70;41.20
15384;DHT22;7790;53.022;12.968;2023-02-14T22:26:42;20.70;41.10
15384;DHT22;7790;53.022;12.968;2023-02-14T22:30:43;20.70;41.10
15384;DHT22;7790;53.022;12.968;2023-02-14T22:34:44;20.80;41.20
15384;DHT22;7790;53.022;12.968;2023-02-14T22:38:45;20.80;41.20
15384;DHT22;7790;53.022;12.968;2023-02-14T22:42:46;20.80;41.10
15384;DHT22;7790;53.022;12.968;2023-02-14T22:46:47;20.90;41.70
15384;DHT22;7790;53.022;12.968;2023-02-14T22:50:47;20.90;41.10
15384;DHT22;7790;53.022;12.968;2023-02-14T22:54:51;21.00;41.00
15384;DHT22;7790;53.022;12.968;2023-02-14T22:58:56;21.00;41.00
15384;DHT22;7790;53.022;12.968;2023-02-14T23:02:57;21.10;41.10
15384;DHT22;7790;53.022;12.968;2023-02-14T23:06:58;21.00;41.00
15384;DHT22;7790;53.022;12.968;2023-02-14T23:11:11;21.00;41.00
15384;DHT22;7790;53.022;12.968;2023-02-14T23:15:12;20.90;41.10
15384;DHT22;7790;53.022;12.968;2023-02-14T23:19:33;20.80;41.00
15384;DHT22;7790;53.022;12.968;2023-02-14T23:23:53;20.80;41.10
15384;DHT22;7790;53.022;12.968;2023-02-14T23:27:54;20.70;41.00
15384;DHT22;7790;53.022;12.968;2023-02-14T23:31:54;20.70;41.00
15384;DHT22;7790;53.022;12.968;2023-02-14T23:35:55;20.80;41.10
15384;DHT22;7790;53.022;12.968;2023-02-14T23:39:56;20.80;41.00
15384;DHT22;7790;53.022;12.968;2023-02-14T23:43:57;20.80;41.00
15384;DHT22;7790;53.022;12.968;2023-02-14T23:48:04;20.90;41.10
15384;DHT22;7790;53.022;12.968;2023-02-14T23:52:08;20.90;40.90
15384;DHT22;7790;53.022;12.968;2023-02-14T23:56:09;21.00;41.00
